createdAt,value
2017-08-15T00:00:52.573Z,29.80
2017-08-15T00:03:20.704Z,29.80
2017-08-15T00:05:48.827Z,29.80
2017-08-15T00:08:16.952Z,29.70
2017-08-15T00:10:45.088Z,29.70
2017-08-15T00:13:13.215Z,29.80
2017-08-15T00:15:41.370Z,29.80
2017-08-15T00:18:10.264Z,29.70
2017-08-15T00:20:38.412Z,29.70
2017-08-15T00:23:06.549Z,29.70
2017-08-15T00:25:34.693Z,29.70
2017-08-15T00:28:02.833Z,29.70
2017-08-15T00:30:30.956Z,29.70
2017-08-15T00:32:59.105Z,29.70
2017-08-15T00:35:28.511Z,29.70
2017-08-15T00:37:56.787Z,29.60
2017-08-15T00:40:24.916Z,29.60
2017-08-15T00:42:53.046Z,29.60
2017-08-15T00:45:21.197Z,29.60
2017-08-15T00:47:50.076Z,29.60
2017-08-15T00:50:18.192Z,29.60
2017-08-15T00:52:46.856Z,29.60
2017-08-15T00:55:15.747Z,29.60
2017-08-15T00:57:44.670Z,29.60
2017-08-15T01:00:12.784Z,29.60
2017-08-15T01:02:40.941Z,29.60
2017-08-15T01:05:09.117Z,29.60
2017-08-15T01:07:37.248Z,29.50
2017-08-15T01:10:05.381Z,29.50
2017-08-15T01:12:33.619Z,29.50
2017-08-15T01:15:01.723Z,29.50
2017-08-15T01:17:29.860Z,29.50
2017-08-15T01:19:58.053Z,29.50
2017-08-15T01:22:26.179Z,29.50
2017-08-15T01:24:55.072Z,29.50
2017-08-15T01:27:23.963Z,29.50
2017-08-15T01:29:52.859Z,29.50
2017-08-15T01:32:21.760Z,29.50
2017-08-15T01:34:49.887Z,29.50
2017-08-15T01:37:18.015Z,29.50
2017-08-15T01:39:46.148Z,29.40
2017-08-15T01:42:14.292Z,29.40
2017-08-15T01:44:42.416Z,29.40
2017-08-15T01:47:11.313Z,29.40
2017-08-15T01:49:40.230Z,29.40
2017-08-15T01:52:08.399Z,29.40
2017-08-15T01:54:36.588Z,29.40
2017-08-15T01:57:04.706Z,29.40
2017-08-15T01:59:32.832Z,29.40
2017-08-15T02:02:00.952Z,29.40
2017-08-15T02:04:29.077Z,29.40
2017-08-15T02:06:57.200Z,29.40
2017-08-15T02:09:25.359Z,29.40
2017-08-15T02:11:53.514Z,29.40
2017-08-15T02:14:21.640Z,29.40
2017-08-15T02:16:50.535Z,29.40
2017-08-15T02:19:19.460Z,29.40
2017-08-15T02:21:47.639Z,29.40
2017-08-15T02:24:16.116Z,29.40
2017-08-15T02:26:44.224Z,29.40
2017-08-15T02:29:12.403Z,29.30
2017-08-15T02:31:40.520Z,29.30
2017-08-15T02:34:08.664Z,29.30
2017-08-15T02:36:37.600Z,29.30
2017-08-15T02:39:05.765Z,29.20
2017-08-15T02:41:34.432Z,29.30
2017-08-15T02:44:09.873Z,29.20
2017-08-15T02:46:39.120Z,29.20
2017-08-15T02:49:07.245Z,29.20
2017-08-15T02:51:36.136Z,29.20
2017-08-15T02:54:05.080Z,29.20
2017-08-15T02:56:33.195Z,29.20
2017-08-15T02:59:02.104Z,29.20
2017-08-15T03:01:30.232Z,29.10
2017-08-15T03:03:58.368Z,29.20
2017-08-15T03:06:31.164Z,29.10
2017-08-15T03:08:59.344Z,29.10
2017-08-15T03:11:27.980Z,29.10
2017-08-15T03:13:56.085Z,29.10
2017-08-15T03:16:24.196Z,29.10
2017-08-15T03:18:52.316Z,29.10
2017-08-15T03:21:20.444Z,29.10
2017-08-15T03:23:48.899Z,29.10
2017-08-15T03:26:17.038Z,29.10
2017-08-15T03:28:45.932Z,29.10
2017-08-15T03:31:14.862Z,29.10
2017-08-15T03:33:43.007Z,29.10
2017-08-15T03:36:11.133Z,29.00
2017-08-15T03:38:39.294Z,29.00
2017-08-15T03:41:07.420Z,29.00
2017-08-15T03:43:36.296Z,29.00
2017-08-15T03:46:05.222Z,29.00
2017-08-15T03:48:33.356Z,29.00
2017-08-15T03:51:01.516Z,29.00
2017-08-15T03:53:29.652Z,29.00
2017-08-15T03:55:57.821Z,29.00
2017-08-15T03:58:25.955Z,29.00
2017-08-15T04:00:54.107Z,29.00
2017-08-15T04:03:22.252Z,29.00
2017-08-15T04:05:50.367Z,29.00
2017-08-15T04:08:18.516Z,28.90
2017-08-15T04:10:46.649Z,28.90
2017-08-15T04:13:15.421Z,28.90
2017-08-15T04:15:44.300Z,28.90
2017-08-15T04:18:12.448Z,28.90
2017-08-15T04:20:40.560Z,28.90
2017-08-15T04:23:09.465Z,28.90
2017-08-15T04:25:38.385Z,28.90
2017-08-15T04:28:06.521Z,28.90
2017-08-15T04:30:35.409Z,29.00
2017-08-15T04:33:05.113Z,28.90
2017-08-15T04:35:33.227Z,28.90
2017-08-15T04:38:01.379Z,29.00
2017-08-15T04:40:30.268Z,29.00
2017-08-15T04:42:59.160Z,29.00
2017-08-15T04:45:28.065Z,29.00
2017-08-15T04:47:56.189Z,28.90
2017-08-15T04:50:24.372Z,29.00
2017-08-15T04:52:52.495Z,29.00
2017-08-15T04:55:20.647Z,29.00
2017-08-15T04:57:49.535Z,29.00
2017-08-15T05:00:18.412Z,29.00
2017-08-15T05:02:46.569Z,29.00
2017-08-15T05:05:14.708Z,29.10
2017-08-15T05:07:42.832Z,29.10
2017-08-15T05:10:10.957Z,29.10
2017-08-15T05:12:39.080Z,29.10
2017-08-15T05:15:07.211Z,29.10
2017-08-15T05:17:35.333Z,29.10
2017-08-15T05:20:03.464Z,29.20
2017-08-15T05:22:31.596Z,29.20
2017-08-15T05:25:00.497Z,29.20
2017-08-15T05:27:28.628Z,29.20
2017-08-15T05:29:56.772Z,29.20
2017-08-15T05:32:25.364Z,29.20
2017-08-15T05:34:53.488Z,29.30
2017-08-15T05:37:21.620Z,29.30
2017-08-15T05:39:49.760Z,29.30
2017-08-15T05:42:17.881Z,29.30
2017-08-15T05:44:46.020Z,29.30
2017-08-15T05:47:14.163Z,29.40
2017-08-15T05:49:42.323Z,29.40
2017-08-15T05:52:10.521Z,29.40
2017-08-15T05:54:38.654Z,29.40
2017-08-15T05:57:06.800Z,29.40
2017-08-15T05:59:34.931Z,29.50
2017-08-15T06:02:03.837Z,29.50
2017-08-15T06:04:31.982Z,29.50
2017-08-15T06:07:00.105Z,29.50
2017-08-15T06:09:28.236Z,29.60
2017-08-15T06:11:57.308Z,29.60
2017-08-15T06:14:25.437Z,29.50
2017-08-15T06:16:53.560Z,29.60
2017-08-15T06:19:21.684Z,29.60
2017-08-15T06:21:49.848Z,29.60
2017-08-15T06:24:18.075Z,29.60
2017-08-15T06:26:46.233Z,29.60
2017-08-15T06:29:14.368Z,29.70
2017-08-15T06:31:42.497Z,29.70
2017-08-15T06:34:10.685Z,29.70
2017-08-15T06:36:38.800Z,29.70
2017-08-15T06:39:06.920Z,29.70
2017-08-15T06:41:35.069Z,29.80
2017-08-15T06:44:03.305Z,29.80
2017-08-15T06:46:32.216Z,29.80
2017-08-15T06:49:00.644Z,29.80
2017-08-15T06:51:28.786Z,29.80
2017-08-15T06:53:56.918Z,29.80
2017-08-15T06:56:25.812Z,29.90
2017-08-15T06:58:54.712Z,29.90
2017-08-15T07:01:23.670Z,29.90
2017-08-15T07:03:51.801Z,29.90
2017-08-15T07:06:19.912Z,29.90
2017-08-15T07:08:48.175Z,30.00
2017-08-15T07:11:16.296Z,29.90
2017-08-15T07:13:45.220Z,30.00
2017-08-15T07:16:13.336Z,30.00
2017-08-15T07:18:41.448Z,30.00
2017-08-15T07:21:09.594Z,30.00
2017-08-15T07:23:39.309Z,30.10
2017-08-15T07:26:07.460Z,30.00
2017-08-15T07:28:35.591Z,30.00
2017-08-15T07:31:03.721Z,30.10
2017-08-15T07:33:31.850Z,30.10
2017-08-15T07:35:59.996Z,30.10
2017-08-15T07:38:28.888Z,30.10
2017-08-15T07:40:57.784Z,30.10
2017-08-15T07:43:25.927Z,30.20
2017-08-15T07:45:54.125Z,30.20
2017-08-15T07:48:23.031Z,30.20
2017-08-15T07:50:51.164Z,30.20
2017-08-15T07:53:19.314Z,30.30
2017-08-15T07:55:47.451Z,30.30
2017-08-15T07:58:15.580Z,30.30
2017-08-15T08:00:43.722Z,30.30
2017-08-15T08:03:11.835Z,30.40
2017-08-15T08:05:40.013Z,30.40
2017-08-15T08:08:08.191Z,30.40
2017-08-15T08:10:36.332Z,30.40
2017-08-15T08:13:04.464Z,30.50
2017-08-15T08:15:33.367Z,30.50
2017-08-15T08:18:01.511Z,30.50
2017-08-15T08:20:30.404Z,30.60
2017-08-15T08:22:59.344Z,30.60
2017-08-15T08:25:27.690Z,30.60
2017-08-15T08:27:56.632Z,30.70
2017-08-15T08:30:24.771Z,30.70
2017-08-15T08:32:53.010Z,30.80
2017-08-15T08:35:21.144Z,30.80
2017-08-15T08:37:49.280Z,30.80
2017-08-15T08:40:18.246Z,30.90
2017-08-15T08:42:46.392Z,30.90
2017-08-15T08:45:14.511Z,30.90
2017-08-15T08:47:42.644Z,31.00
2017-08-15T08:50:10.905Z,31.00
2017-08-15T08:52:39.039Z,31.10
2017-08-15T08:55:07.934Z,31.20
2017-08-15T08:57:36.836Z,31.20
2017-08-15T09:00:05.068Z,31.20
2017-08-15T09:02:33.208Z,31.30
2017-08-15T09:05:01.368Z,31.30
2017-08-15T09:07:29.536Z,31.30
2017-08-15T09:09:57.681Z,31.40
2017-08-15T09:12:25.816Z,31.50
2017-08-15T09:14:54.024Z,31.60
2017-08-15T09:17:22.141Z,31.60
2017-08-15T09:19:50.280Z,31.70
2017-08-15T09:22:18.480Z,31.70
2017-08-15T09:24:46.604Z,31.80
2017-08-15T09:27:14.740Z,31.90
2017-08-15T09:29:46.164Z,32.00
2017-08-15T09:32:15.400Z,32.10
2017-08-15T09:34:43.519Z,32.10
2017-08-15T09:37:11.661Z,32.20
2017-08-15T09:39:39.837Z,32.20
2017-08-15T09:42:08.012Z,32.20
2017-08-15T09:44:36.132Z,32.30
2017-08-15T09:47:04.292Z,32.40
2017-08-15T09:49:32.427Z,32.40
2017-08-15T09:52:00.560Z,32.50
2017-08-15T09:54:29.456Z,32.70
2017-08-15T09:56:57.577Z,32.60
2017-08-15T09:59:25.721Z,32.70
2017-08-15T10:01:53.856Z,32.80
2017-08-15T10:04:22.013Z,32.90
2017-08-15T10:06:50.132Z,33.00
2017-08-15T10:09:18.261Z,33.10
2017-08-15T10:11:46.508Z,33.10
2017-08-15T10:14:14.635Z,33.30
2017-08-15T10:16:42.764Z,33.30
2017-08-15T10:19:10.916Z,33.40
2017-08-15T10:21:39.040Z,33.50
2017-08-15T10:24:07.184Z,33.60
2017-08-15T10:26:35.319Z,33.70
2017-08-15T10:29:04.215Z,33.90
2017-08-15T10:31:33.211Z,34.00
2017-08-15T10:34:02.549Z,34.40
2017-08-15T10:36:30.676Z,34.40
2017-08-15T10:38:59.588Z,35.30
2017-08-15T10:41:27.820Z,35.30
2017-08-15T10:43:56.009Z,35.90
2017-08-15T10:46:55.568Z,36.60
2017-08-15T10:49:23.707Z,37.30
2017-08-15T10:51:52.657Z,38.60
2017-08-15T10:54:21.064Z,38.50
2017-08-15T10:56:49.188Z,38.90
2017-08-15T10:59:17.316Z,39.20
2017-08-15T11:01:45.476Z,39.40
2017-08-15T11:04:13.620Z,39.40
2017-08-15T11:06:41.756Z,39.30
2017-08-15T11:09:10.651Z,38.90
2017-08-15T11:11:38.800Z,38.90
2017-08-15T11:14:06.942Z,38.70
2017-08-15T11:16:35.072Z,38.50
2017-08-15T11:19:03.217Z,38.30
2017-08-15T11:21:31.456Z,38.30
2017-08-15T11:23:59.568Z,38.20
2017-08-15T11:26:27.733Z,38.30
2017-08-15T11:28:56.144Z,38.20
2017-08-15T11:31:25.609Z,38.20
2017-08-15T11:33:54.516Z,38.30
2017-08-15T11:36:22.652Z,38.30
2017-08-15T11:38:50.808Z,38.30
2017-08-15T11:41:18.940Z,38.40
2017-08-15T11:43:47.076Z,38.40
2017-08-15T11:46:15.203Z,38.50
2017-08-15T11:48:44.122Z,38.60
2017-08-15T11:51:12.283Z,38.60
2017-08-15T11:53:45.178Z,38.70
2017-08-15T11:56:13.686Z,38.80
2017-08-15T11:58:41.793Z,38.80
2017-08-15T12:01:10.006Z,38.90
2017-08-15T12:03:38.159Z,39.00
2017-08-15T12:06:07.108Z,39.10
2017-08-15T12:08:35.355Z,39.10
2017-08-15T12:11:03.499Z,39.20
2017-08-15T12:13:31.628Z,39.30
2017-08-15T12:15:59.764Z,39.30
2017-08-15T12:18:27.901Z,39.40
2017-08-15T12:20:56.027Z,39.50
2017-08-15T12:23:24.224Z,39.60
2017-08-15T12:25:52.351Z,39.70
2017-08-15T12:28:21.237Z,39.90
2017-08-15T12:30:49.374Z,39.80
2017-08-15T12:33:17.520Z,40.00
2017-08-15T12:35:45.664Z,40.10
2017-08-15T12:38:14.598Z,40.30
2017-08-15T12:40:42.756Z,40.30
2017-08-15T12:43:10.928Z,40.50
2017-08-15T12:45:39.757Z,40.60
2017-08-15T12:48:07.920Z,40.70
2017-08-15T12:50:36.054Z,40.80
2017-08-15T12:53:04.954Z,41.10
2017-08-15T12:55:33.845Z,41.20
2017-08-15T12:58:02.762Z,41.20
2017-08-15T13:00:30.896Z,41.20
2017-08-15T13:02:59.772Z,41.10
2017-08-15T13:05:27.904Z,41.10
2017-08-15T13:07:56.024Z,41.30
2017-08-15T13:10:24.168Z,41.70
2017-08-15T13:12:52.332Z,42.20
2017-08-15T13:15:20.460Z,42.90
2017-08-15T13:17:49.368Z,44.10
2017-08-15T13:20:18.320Z,44.70
2017-08-15T13:22:46.460Z,44.70
2017-08-15T13:25:14.581Z,45.20
2017-08-15T13:27:42.724Z,45.70
2017-08-15T13:30:10.877Z,46.10
2017-08-15T13:32:39.016Z,46.40
2017-08-15T13:35:07.917Z,47.00
2017-08-15T13:37:37.532Z,47.40
2017-08-15T13:40:06.442Z,47.70
2017-08-15T13:42:34.579Z,47.60
2017-08-15T13:45:03.496Z,48.20
2017-08-15T13:47:31.637Z,48.20
2017-08-15T13:49:59.768Z,48.30
2017-08-15T13:52:27.891Z,48.60
2017-08-15T13:54:56.065Z,48.10
2017-08-15T13:57:24.204Z,47.10
2017-08-15T13:59:52.355Z,46.20
2017-08-15T14:04:54.768Z,46.20
2017-08-15T14:07:22.908Z,46.20
2017-08-15T14:09:51.055Z,45.90
2017-08-15T14:12:19.195Z,45.80
2017-08-15T14:14:47.324Z,45.50
2017-08-15T14:17:16.236Z,44.60
2017-08-15T14:19:44.426Z,44.60
2017-08-15T14:22:12.540Z,44.30
2017-08-15T14:24:40.672Z,43.80
2017-08-15T14:27:09.067Z,43.20
2017-08-15T14:29:37.212Z,42.70
2017-08-15T14:32:05.404Z,42.30
2017-08-15T14:34:33.557Z,42.10
2017-08-15T14:37:01.680Z,41.90
2017-08-15T14:39:29.839Z,42.20
2017-08-15T14:41:57.988Z,42.70
2017-08-15T14:44:26.258Z,43.30
2017-08-15T14:46:54.408Z,43.90
2017-08-15T14:49:22.661Z,43.90
2017-08-15T14:51:50.768Z,43.60
2017-08-15T14:54:18.924Z,43.60
2017-08-15T14:56:47.065Z,43.60
2017-08-15T14:59:15.201Z,43.80
2017-08-15T15:01:43.320Z,44.00
2017-08-15T15:04:11.451Z,44.20
2017-08-15T15:06:39.576Z,44.40
2017-08-15T15:09:07.735Z,44.30
2017-08-15T15:11:35.871Z,44.30
2017-08-15T15:14:04.676Z,44.40
2017-08-15T15:16:32.831Z,44.40
2017-08-15T15:19:01.722Z,44.50
2017-08-15T15:21:30.191Z,44.50
2017-08-15T15:23:59.095Z,44.40
2017-08-15T15:26:28.128Z,44.40
2017-08-15T15:28:56.263Z,44.30
2017-08-15T15:31:25.176Z,43.90
2017-08-15T15:33:53.313Z,43.80
2017-08-15T15:36:21.538Z,43.40
2017-08-15T15:38:49.676Z,42.80
2017-08-15T15:41:18.600Z,41.80
2017-08-15T15:43:46.830Z,41.80
2017-08-15T15:46:14.993Z,41.50
2017-08-15T15:48:43.127Z,41.10
2017-08-15T15:51:11.264Z,40.80
2017-08-15T15:53:40.179Z,40.30
2017-08-15T15:56:08.332Z,40.30
2017-08-15T15:58:37.268Z,40.00
2017-08-15T16:01:05.409Z,39.90
2017-08-15T16:03:33.540Z,39.70
2017-08-15T16:06:01.669Z,39.60
2017-08-15T16:08:29.801Z,39.50
2017-08-15T16:10:57.940Z,39.30
2017-08-15T16:13:26.136Z,39.20
2017-08-15T16:15:54.273Z,39.10
2017-08-15T16:18:22.408Z,39.00
2017-08-15T16:20:51.299Z,38.90
2017-08-15T16:23:19.433Z,38.80
2017-08-15T16:25:47.578Z,38.80
2017-08-15T16:28:16.384Z,38.70
2017-08-15T16:30:44.515Z,38.60
2017-08-15T16:33:13.537Z,38.40
2017-08-15T16:35:41.778Z,38.40
2017-08-15T16:38:10.575Z,38.30
2017-08-15T16:40:39.481Z,38.10
2017-08-15T16:43:08.380Z,38.00
2017-08-15T16:45:36.613Z,38.00
2017-08-15T16:48:09.577Z,37.90
2017-08-15T16:50:37.680Z,37.80
2017-08-15T16:53:06.124Z,37.70
2017-08-15T16:55:34.258Z,37.60
2017-08-15T16:58:03.164Z,37.40
2017-08-15T17:00:31.316Z,37.40
2017-08-15T17:02:59.575Z,37.30
2017-08-15T17:05:27.716Z,37.20
2017-08-15T17:07:55.844Z,37.20
2017-08-15T17:10:24.740Z,36.90
2017-08-15T17:12:53.664Z,36.80
2017-08-15T17:15:21.809Z,36.80
2017-08-15T17:17:50.756Z,36.60
2017-08-15T17:20:18.894Z,36.60
2017-08-15T17:22:47.027Z,36.50
2017-08-15T17:25:15.164Z,36.40
2017-08-15T17:27:43.301Z,36.30
2017-08-15T17:30:12.213Z,36.10
2017-08-15T17:32:40.350Z,36.10
2017-08-15T17:35:08.524Z,36.00
2017-08-15T17:37:36.678Z,35.90
2017-08-15T17:40:04.820Z,35.80
2017-08-15T17:42:32.956Z,35.70
2017-08-15T17:45:01.867Z,35.50
2017-08-15T17:47:30.001Z,35.40
2017-08-15T17:49:58.168Z,35.40
2017-08-15T17:52:26.324Z,35.30
2017-08-15T17:54:54.542Z,35.20
2017-08-15T17:57:22.672Z,35.10
2017-08-15T17:59:50.793Z,35.00
2017-08-15T18:02:18.963Z,34.90
2017-08-15T18:04:47.140Z,34.80
2017-08-15T18:07:15.305Z,34.70
2017-08-15T18:09:43.440Z,34.70
2017-08-15T18:12:11.572Z,34.60
2017-08-15T18:14:40.552Z,34.50
2017-08-15T18:17:08.683Z,34.40
2017-08-15T18:19:37.484Z,34.40
2017-08-15T18:22:05.625Z,34.30
2017-08-15T18:24:33.772Z,34.20
2017-08-15T18:27:01.939Z,34.20
2017-08-15T18:29:30.079Z,34.10
2017-08-15T18:31:58.195Z,34.10
2017-08-15T18:34:26.339Z,34.00
2017-08-15T18:36:54.469Z,34.00
2017-08-15T18:39:22.605Z,33.90
2017-08-15T18:41:50.788Z,33.90
2017-08-15T18:44:18.916Z,33.80
2017-08-15T18:46:47.065Z,33.80
2017-08-15T18:49:15.216Z,33.70
2017-08-15T18:51:43.332Z,33.70
2017-08-15T18:54:11.468Z,33.60
2017-08-15T18:56:40.353Z,33.50
2017-08-15T18:59:08.508Z,33.50
2017-08-15T19:01:37.292Z,33.50
2017-08-15T19:04:05.417Z,33.40
2017-08-15T19:06:33.528Z,33.40
2017-08-15T19:09:01.673Z,33.30
2017-08-15T19:11:29.896Z,33.30
2017-08-15T19:13:58.037Z,33.30
2017-08-15T19:16:26.780Z,33.30
2017-08-15T19:18:54.923Z,33.30
2017-08-15T19:21:23.063Z,33.30
2017-08-15T19:23:51.592Z,33.20
2017-08-15T19:26:24.853Z,33.20
2017-08-15T19:28:52.986Z,33.10
2017-08-15T19:31:21.909Z,33.10
2017-08-15T19:33:50.028Z,33.00
2017-08-15T19:36:18.176Z,33.00
2017-08-15T19:38:46.323Z,33.00
2017-08-15T19:41:14.463Z,33.00
2017-08-15T19:43:42.696Z,32.90
2017-08-15T19:46:10.846Z,32.90
2017-08-15T19:48:38.983Z,32.80
2017-08-15T19:51:07.244Z,32.80
2017-08-15T19:53:35.404Z,32.80
2017-08-15T19:56:03.539Z,32.70
2017-08-15T19:58:32.440Z,32.70
2017-08-15T20:01:00.604Z,32.60
2017-08-15T20:03:30.252Z,32.60
2017-08-15T20:05:58.414Z,32.60
2017-08-15T20:08:26.557Z,32.60
2017-08-15T20:10:55.469Z,32.60
2017-08-15T20:13:23.611Z,32.50
2017-08-15T20:15:51.736Z,32.50
2017-08-15T20:18:19.883Z,32.50
2017-08-15T20:20:48.784Z,32.40
2017-08-15T20:23:16.897Z,32.40
2017-08-15T20:25:45.020Z,32.40
2017-08-15T20:28:13.183Z,32.40
2017-08-15T20:30:42.080Z,32.40
2017-08-15T20:33:10.955Z,32.30
2017-08-15T20:35:39.084Z,32.30
2017-08-15T20:38:07.194Z,32.30
2017-08-15T20:40:35.345Z,32.30
2017-08-15T20:43:03.476Z,32.30
2017-08-15T20:45:31.630Z,32.30
2017-08-15T20:47:59.756Z,32.20
2017-08-15T20:50:27.900Z,32.20
2017-08-15T20:52:56.760Z,32.20
2017-08-15T20:55:24.907Z,32.20
2017-08-15T20:57:53.067Z,32.10
2017-08-15T21:00:21.196Z,32.10
2017-08-15T21:02:50.146Z,32.10
2017-08-15T21:05:18.272Z,32.10
2017-08-15T21:07:47.163Z,32.10
2017-08-15T21:10:16.093Z,32.10
2017-08-15T21:12:44.249Z,32.00
2017-08-15T21:15:12.392Z,32.00
2017-08-15T21:17:41.332Z,32.00
2017-08-15T21:20:09.468Z,32.00
2017-08-15T21:22:38.725Z,32.00
2017-08-15T21:25:06.869Z,32.00
2017-08-15T21:27:35.008Z,32.00
2017-08-15T21:30:03.903Z,31.90
2017-08-15T21:32:32.832Z,31.90
2017-08-15T21:35:01.032Z,31.90
2017-08-15T21:37:29.168Z,31.90
2017-08-15T21:39:57.309Z,31.80
2017-08-15T21:42:26.505Z,31.80
2017-08-15T21:44:54.631Z,31.80
2017-08-15T21:47:22.764Z,31.80
2017-08-15T21:49:51.652Z,31.80
2017-08-15T21:52:20.568Z,31.80
2017-08-15T21:54:48.688Z,31.80
2017-08-15T21:57:16.910Z,31.80
2017-08-15T21:59:45.812Z,31.80
2017-08-15T22:02:18.177Z,31.70
2017-08-15T22:04:46.585Z,31.70
2017-08-15T22:07:14.748Z,31.70
2017-08-15T22:09:42.885Z,31.70
2017-08-15T22:12:11.017Z,31.70
2017-08-15T22:14:39.152Z,31.70
2017-08-15T22:17:08.045Z,31.60
2017-08-15T22:19:36.207Z,31.60
2017-08-15T22:22:04.328Z,31.60
2017-08-15T22:24:32.464Z,31.60
2017-08-15T22:27:01.385Z,31.60
2017-08-15T22:29:29.516Z,31.50
2017-08-15T22:31:58.416Z,31.60
2017-08-15T22:34:27.328Z,31.50
2017-08-15T22:36:55.488Z,31.50
2017-08-15T22:39:24.387Z,31.50
2017-08-15T22:41:52.535Z,31.50
2017-08-15T22:44:20.648Z,31.50
2017-08-15T22:46:48.991Z,31.50
2017-08-15T22:49:17.137Z,31.50
2017-08-15T22:51:45.363Z,31.50
2017-08-15T22:54:13.530Z,31.50
2017-08-15T22:56:42.433Z,31.40
2017-08-15T22:59:10.588Z,31.40
2017-08-15T23:01:39.497Z,31.40
2017-08-15T23:04:07.617Z,31.40
2017-08-15T23:06:35.771Z,31.40
2017-08-15T23:09:04.165Z,31.40
2017-08-15T23:11:32.312Z,31.40
2017-08-15T23:14:00.440Z,31.30
2017-08-15T23:16:28.586Z,31.30
2017-08-15T23:18:56.711Z,31.30
2017-08-15T23:21:25.612Z,31.30
2017-08-15T23:23:53.736Z,31.30
2017-08-15T23:26:21.872Z,31.30
2017-08-15T23:28:50.021Z,31.20
2017-08-15T23:31:18.907Z,31.20
2017-08-15T23:33:47.784Z,31.20
2017-08-15T23:36:15.940Z,31.20
2017-08-15T23:38:44.080Z,31.20
2017-08-15T23:41:12.200Z,31.20
2017-08-15T23:43:40.344Z,31.20
2017-08-15T23:46:08.472Z,31.20
2017-08-15T23:48:37.384Z,31.20
2017-08-15T23:51:05.528Z,31.20
2017-08-15T23:53:33.668Z,31.20
2017-08-15T23:56:01.793Z,31.20
2017-08-15T23:58:30.796Z,31.10
